• Join FlightAware (Why Join?)
  • Login
  • US Flag 
02:55PM EDT


 

Airport Tracker/Info


-or-


 

Live Flight TrackerFlight Track Log ✈ N137TK ✈ 23-Jan-2014 ✈ KSGR - KAPF

Flight Track Log - Related Links

Times and Time Zones

All times are in EST time to prevent confusion due to time zone crossing. See the N137TK flight status page for this flight to view local times or setup timezone preferences in your user account.

Time Position Orientation Groundspeed Altitude Reporting Facility
EST Latitude Longitude Course Direction KTS MPH feet Rate Location/Type
07:06AM 29.6375 -95.6589 226° Southwest 198 228 800  Level Houston Center
07:08AM 29.6261 -95.6722 226° Southwest 145 167 4,000 2,100 Climbing Houston Center
07:09AM 29.6300 -95.6333 83° East 156 180 5,800 2,220 Climbing Houston Center
07:09AM 29.6303 -95.6239 88° East 156 180 6,300 2,520 Climbing Houston Center
07:10AM 29.6342 -95.5753 85° East 165 190 8,400 2,220 Climbing Houston Center
07:11AM 29.6375 -95.5172 86° East 184 212 10,600 1,920 Climbing Houston Center
07:12AM 29.6422 -95.4664 84° East 183 211 12,300 1,500 Climbing Houston Center
07:13AM 29.6472 -95.3989 85° East 206 237 13,700 1,560 Climbing Houston Center
07:14AM 29.6531 -95.3228 85° East 233 268 15,500 1,680 Climbing Houston Center
07:15AM 29.6589 -95.2447 85° East 241 277 17,200 1,560 Climbing Houston Center
07:16AM 29.6658 -95.1583 85° East 252 290 18,700 1,500 Climbing Houston Center
07:17AM 29.6706 -95.0775 86° East 255 293 20,300 1,320 Climbing Houston Center
07:18AM 29.6767 -94.9922 85° East 259 298 21,400 1,260 Climbing Houston Center
07:19AM 29.6828 -94.9050 85° East 268 308 22,900 1,200 Climbing Houston Center
07:20AM 29.6889 -94.8211 85° East 266 306 23,900 1,080 Climbing Houston Center
07:21AM 29.6944 -94.7361 86° East 267 307 25,100 1,080 Climbing Houston Center
07:22AM 29.7003 -94.6517 85° East 266 306 26,200 900 Climbing Houston Center
07:23AM 29.7069 -94.5661 85° East 267 307 27,000 360 Climbing Houston Center
07:24AM 29.7133 -94.4703 86° East 294 338 27,000  Level Houston Center
07:25AM 29.7189 -94.3647 87° East 324 373 27,000  Level Houston Center
07:26AM 29.6989 -94.2561 102° East 340 391 27,000  Level Houston Center
07:27AM 29.6758 -94.1281 102° East 349 402 27,000  Level Houston Center
07:28AM 29.6547 -94.0181 102° East 352 405 27,000  Level Houston Center
07:29AM 29.6344 -93.9100 102° East 349 402 27,000  Level Houston Center
07:30AM 29.6136 -93.8003 102° East 352 405 27,000  Level Houston Center
07:31AM 29.5919 -93.6911 103° East 352 405 27,000  Level Houston Center
07:32AM 29.5722 -93.5825 102° East 351 404 27,000  Level Houston Center
07:33AM 29.5517 -93.4739 102° East 351 404 27,000  Level Houston Center
07:34AM 29.5300 -93.3633 103° East 354 407 27,000  Level Houston Center
07:35AM 29.5089 -93.2544 103° East 352 405 27,000  Level Houston Center
07:36AM 29.4881 -93.1450 102° East 352 405 27,000  Level Houston Center
07:37AM 29.4664 -93.0353 103° East 353 406 27,000  Level Houston Center
07:38AM 29.4408 -92.9039 103° East 353 406 27,000  Level Houston Center
07:39AM 29.4183 -92.7958 103° East 351 404 27,000  Level Houston Center
07:40AM 29.3975 -92.6869 102° East 352 405 27,000  Level Houston Center
07:41AM 29.3750 -92.5781 103° East 353 406 27,000  Level Houston Center
07:42AM 29.3539 -92.4686 102° East 352 405 27,000  Level Houston Center
07:43AM 29.3317 -92.3603 103° East 351 404 27,000  Level Houston Center
07:44AM 29.3092 -92.2511 103° East 353 406 27,000  Level Houston Center
07:45AM 29.2883 -92.1419 102° East 352 405 27,000  Level Houston Center
07:46AM 29.2653 -92.0331 104° East 352 405 27,000  Level Houston Center
07:47AM 29.2422 -91.9242 104° East 352 405 27,000  Level Houston Center
07:48AM 29.2208 -91.8153 103° East 351 404 27,000  Level Houston Center
07:49AM 29.1975 -91.7044 104° East 354 407 27,000  Level Houston Center
07:50AM 29.1756 -91.5958 103° East 353 406 27,000  Level Houston Center
07:51AM 29.1525 -91.4864 104° East 354 407 27,000  Level Houston Center
07:52AM 29.1247 -91.3564 104° East 351 404 27,000  Level Houston Center
07:53AM 29.1022 -91.2475 103° East 353 406 27,000  Level Houston Center
07:54AM 29.0783 -91.1397 104° East 353 406 27,000  Level Houston Center
07:55AM 29.0564 -91.0300 103° East 353 406 27,000  Level Houston Center
07:56AM 29.0333 -90.9203 103° East 356 410 27,000  Level Houston Center
07:57AM 29.0094 -90.8117 104° East 355 409 27,000  Level Houston Center
07:58AM 28.9861 -90.7011 104° East 357 411 27,000  Level Houston Center
07:59AM 28.9631 -90.5936 104° East 354 407 27,000  Level Houston Center
08:00AM 28.9389 -90.4847 104° East 354 407 27,000  Level Houston Center
08:01AM 28.9158 -90.3764 104° East 353 406 27,000  Level Houston Center
08:02AM 28.8925 -90.2686 104° East 352 405 27,000  Level Houston Center
08:03AM 28.8631 -90.1386 104° East 354 407 27,000  Level Houston Center
08:04AM 28.8389 -90.0319 104° East 352 405 27,000  Level Houston Center
08:05AM 28.8089 -89.9283 108° East 348 400 27,000  Level Houston Center
08:06AM 28.7783 -89.8236 108° East 349 402 27,000  Level Houston Center
08:07AM 28.7478 -89.7178 108° East 350 403 27,000  Level Houston Center
08:08AM 28.7183 -89.6150 108° East 347 399 27,000  Level Houston Center
08:10AM 28.6881 -89.5114 108° East 345 397 27,000  Level Houston Center
08:11AM 28.6569 -89.4081 109° East 346 398 27,000  Level Houston Center
08:12AM 28.6272 -89.3047 108° East 345 397 27,000  Level Houston Center
08:13AM 28.5908 -89.1806 108° East 346 398 27,000  Level Houston Center
08:14AM 28.5606 -89.0772 108° East 345 397 27,000  Level Houston Center
08:15AM 28.5300 -88.9744 109° East 344 396 27,000  Level Houston Center
08:16AM 28.4983 -88.8714 109° East 346 398 27,000  Level Houston Center
08:17AM 28.4686 -88.7703 108° East 340 391 27,000  Level Houston Center
08:18AM 28.4381 -88.6661 108° East 346 398 27,000  Level Houston Center
08:19AM 28.4067 -88.5639 109° East 346 398 27,000  Level Houston Center
08:20AM 28.3767 -88.4614 108° East 343 395 27,000  Level Houston Center
08:21AM 28.3453 -88.3586 109° East 345 397 27,000  Level Houston Center
08:22AM 28.3072 -88.2364 109° East 345 397 27,000  Level Houston Center
08:23AM 28.2764 -88.1325 109° East 347 399 27,000  Level Houston Center
08:24AM 28.2467 -88.0358 109° East 347 399 27,000  Level Houston Center
08:25AM 28.2156 -87.9342 109° East 344 396 27,000  Level Houston Center
08:26AM 28.1839 -87.8314 109° East 345 397 27,000  Level Houston Center
08:27AM 28.1531 -87.7297 109° East 343 395 27,000  Level Houston Center
08:28AM 28.1156 -87.6067 109° East 344 396 27,000  Level Houston Center
08:29AM 28.0833 -87.5047 110° East 346 398 27,000  Level Houston Center
08:30AM 28.0525 -87.4047 109° East 339 390 27,000  Level Houston Center
08:31AM 28.0200 -87.3022 110° East 344 396 27,000  Level Houston Center
08:32AM 27.9900 -87.2072 110° East 348 400 27,000  Level Jacksonville Center
08:33AM 27.9561 -87.1000 110° East 348 400 27,000  Level Jacksonville Center
08:34AM 27.9383 -86.9983 101° East 348 400 27,000  Level Jacksonville Center
08:35AM 27.9253 -86.8850 97° East 343 395 27,000  Level Jacksonville Center
08:36AM 27.9139 -86.7792 97° East 338 389 27,000  Level Jacksonville Center
08:37AM 27.9067 -86.6756 94° East 347 399 27,000  Level Jacksonville Center
08:38AM 27.8950 -86.5717 97° East 334 384 27,000  Level Jacksonville Center
08:39AM 27.8794 -86.4539 98° East 346 398 27,000  Level Jacksonville Center
08:40AM 27.8681 -86.3383 96° East 359 413 27,000  Level Jacksonville Center
08:41AM 27.8561 -86.2372 98° East 348 400 27,000  Level Jacksonville Center
08:42AM 27.8444 -86.1242 97° East 348 400 27,000  Level Jacksonville Center
08:43AM 27.8325 -86.0181 97° East 354 407 27,000  Level Jacksonville Center
08:44AM 27.8206 -85.9097 97° East 347 399 27,000  Level Jacksonville Center
08:45AM 27.8083 -85.8039 97° East 347 399 27,000  Level Jacksonville Center
08:47AM 27.7622 -85.5511 102° East 350 403 27,000  Level Miami Center
08:48AM 27.7267 -85.4503 112° Southeast 350 403 27,000  Level Miami Center
08:49AM 27.6931 -85.3492 111° Southeast 345 397 27,000  Level Miami Center
08:50AM 27.6594 -85.2483 111° Southeast 345 397 27,000  Level Miami Center
08:51AM 27.6211 -85.1519 114° Southeast 339 390 27,000  Level Miami Center
08:52AM 27.5917 -85.0517 108° East 339 390 27,000  Level Miami Center
08:53AM 27.5597 -84.9511 110° East 339 390 27,000  Level Miami Center
08:54AM 27.5194 -84.8503 114° Southeast 339 390 27,000  Level Miami Center
08:55AM 27.4894 -84.7522 109° East 339 390 27,000  Level Miami Center
08:56AM 27.4575 -84.6519 110° East 339 390 27,000  Level Miami Center
08:57AM 27.4169 -84.5511 114° Southeast 339 390 27,000  Level Miami Center
08:58AM 27.3828 -84.4508 111° Southeast 339 390 27,000  Level Miami Center
08:59AM 27.3461 -84.3503 112° Southeast 339 390 27,000  Level Miami Center
09:00AM 27.3117 -84.2522 112° Southeast 339 390 27,000  Level Miami Center
09:01AM 27.2811 -84.1547 109° East 339 390 27,000  Level Miami Center
09:02AM 27.2464 -84.0567 112° Southeast 339 390 27,000  Level Miami Center
09:03AM 27.2078 -83.9564 113° Southeast 339 390 27,000 -240 Level Miami Center
09:04AM 27.1750 -83.8589 111° Southeast 339 390 26,600 -720 Descending Miami Center
09:05AM 27.1361 -83.7539 113° Southeast 345 397 25,600 -1,020 Descending Miami Center
09:06AM 27.1014 -83.6492 110° East 356 410 24,600 -1,020 Descending Miami Center
09:07AM 27.0644 -83.5469 112° Southeast 356 410 23,600 -1,020 Descending Miami Center
09:08AM 27.0256 -83.4422 113° Southeast 362 417 22,600 -1,080 Descending Miami Center
09:09AM 26.9864 -83.3397 113° Southeast 362 417 21,500 -1,140 Descending Miami Center
09:10AM 26.9531 -83.2403 111° Southeast 356 410 20,400 -1,140 Descending Miami Center
09:11AM 26.9136 -83.1403 114° Southeast 356 410 19,300 -1,080 Descending Miami Center
09:12AM 26.8806 -83.0408 110° East 349 402 18,300 -840 Descending Miami Center
09:13AM 26.8450 -82.9436 112° Southeast 344 396 17,700 -840 Descending Miami Center
09:14AM 26.8114 -82.8489 112° Southeast 334 384 16,700 -1,020 Descending Miami Center
09:15AM 26.7756 -82.7564 113° Southeast 329 379 15,700 -1,020 Descending Miami Center
09:16AM 26.7436 -82.6664 112° Southeast 318 366 14,700 -1,020 Descending Miami Center
09:17AM 26.7117 -82.5764 112° Southeast 318 366 13,700 -1,080 Descending Miami Center
09:18AM 26.6775 -82.4867 113° Southeast 313 360 12,600 -1,260 Descending Miami Center
09:19AM 26.6417 -82.3897 112° Southeast 313 360 11,200 -1,200 Descending Miami Center
09:20AM 26.5900 -82.3244 132° Southeast 292 336 10,200 -1,020 Descending Miami Center
09:21AM 26.5272 -82.2706 142° Southeast 285 328 9,200 -1,020 Descending Miami Center
09:22AM 26.4664 -82.2214 144° Southeast 280 322 8,200 -1,020 Descending Miami Center
09:23AM 26.4033 -82.1722 145° Southeast 275 316 7,200 -1,020 Descending Miami Center
09:24AM 26.3447 -82.1256 144° Southeast 275 316 6,200 -960 Descending Miami Center
09:25AM 26.2925 -82.0653 134° Southeast 270 311 5,300 -960 Descending Miami Center
09:26AM 26.2467 -82.0056 131° Southeast 260 299 4,300 -1,020 Descending Miami Center
09:27AM 26.2047 -81.9528 132° Southeast 248 285 3,300 -1,020 Descending Miami Center
09:29AM 26.1719 -81.8414 130° Southeast  Level Estimated
09:36AM 26.1524 -81.7756 130° Southeast  Level Estimated
09:37AM 26.1524 -81.7756 130° Southeast  Level Estimated
09:38AM 26.1524 -81.7756 130° Southeast  Level Estimated
09:39AM 26.1524 -81.7756 130° Southeast  Level Estimated
09:40AM 26.1524 -81.7756 130° Southeast  Level Estimated